createdAt,value
2023-03-12T00:02:24.052Z,8.30
2023-03-12T00:04:50.559Z,8.40
2023-03-12T00:07:17.099Z,8.82
2023-03-12T00:09:43.804Z,8.60
2023-03-12T00:12:11.464Z,8.30
2023-03-12T00:14:37.995Z,9.13
2023-03-12T00:17:04.563Z,8.40
2023-03-12T00:19:31.106Z,8.18
2023-03-12T00:21:57.595Z,8.60
2023-03-12T00:24:24.374Z,8.80
2023-03-12T00:26:50.893Z,8.90
2023-03-12T00:29:17.458Z,8.65
2023-03-12T00:31:44.294Z,8.50
2023-03-12T00:34:11.134Z,8.50
2023-03-12T00:36:38.046Z,8.45
2023-03-12T00:39:04.669Z,8.40
2023-03-12T00:41:31.892Z,8.77
2023-03-12T00:43:58.839Z,9.05
2023-03-12T00:46:25.687Z,8.75
2023-03-12T00:48:52.433Z,8.82
2023-03-12T00:51:19.537Z,9.30
2023-03-12T00:53:46.107Z,8.43
2023-03-12T00:56:12.656Z,7.95
2023-03-12T00:58:39.539Z,8.40
2023-03-12T01:01:06.181Z,9.60
2023-03-12T01:03:32.978Z,11.38
2023-03-12T01:05:59.860Z,8.80
2023-03-12T01:08:26.515Z,7.82
2023-03-12T01:10:53.344Z,7.97
2023-03-12T01:13:19.984Z,8.18
2023-03-12T01:15:46.534Z,8.05
2023-03-12T01:18:13.129Z,7.40
2023-03-12T01:20:40.994Z,8.38
2023-03-12T01:23:07.595Z,8.40
2023-03-12T01:25:34.739Z,8.98
2023-03-12T01:28:02.014Z,8.50
2023-03-12T01:30:29.302Z,9.10
2023-03-12T01:32:55.800Z,8.95
2023-03-12T01:35:22.376Z,8.98
2023-03-12T01:37:48.866Z,9.25
2023-03-12T01:40:17.849Z,8.93
2023-03-12T01:42:52.086Z,9.20
2023-03-12T01:45:56.135Z,8.85
2023-03-12T01:48:23.383Z,9.27
2023-03-12T01:50:50.415Z,8.23
2023-03-12T01:53:17.675Z,8.82
2023-03-12T01:55:44.427Z,8.40
2023-03-12T01:58:11.403Z,7.82
2023-03-12T02:00:38.023Z,8.57
2023-03-12T02:03:08.898Z,8.73
2023-03-12T02:05:44.953Z,8.10
2023-03-12T02:08:13.046Z,8.45
2023-03-12T02:10:39.886Z,7.88
2023-03-12T02:13:07.149Z,7.70
2023-03-12T02:15:37.468Z,8.60
2023-03-12T02:18:04.999Z,8.68
2023-03-12T02:21:03.829Z,8.73
2023-03-12T02:23:47.708Z,8.35
2023-03-12T02:26:16.538Z,8.20
2023-03-12T02:28:45.735Z,8.40
2023-03-12T02:31:15.768Z,7.80
2023-03-12T02:33:42.428Z,7.97
2023-03-12T02:36:09.395Z,8.15
2023-03-12T02:38:36.053Z,8.52
2023-03-12T02:41:11.135Z,7.75
2023-03-12T02:43:39.168Z,7.97
2023-03-12T02:46:06.870Z,8.10
2023-03-12T02:48:33.556Z,8.15
2023-03-12T02:51:00.138Z,8.75
2023-03-12T02:53:26.763Z,8.90
2023-03-12T02:55:53.405Z,8.27
2023-03-12T02:58:20.255Z,8.88
2023-03-12T03:00:46.821Z,8.40
2023-03-12T03:03:13.492Z,8.70
2023-03-12T03:05:40.023Z,8.65
2023-03-12T03:08:06.744Z,8.85
2023-03-12T03:10:33.361Z,8.68
2023-03-12T03:13:00.172Z,9.00
2023-03-12T03:15:27.107Z,9.05
2023-03-12T03:17:53.722Z,9.00
2023-03-12T03:20:21.280Z,8.98
2023-03-12T03:22:48.272Z,9.43
2023-03-12T03:25:14.845Z,9.75
2023-03-12T03:27:41.462Z,9.85
2023-03-12T03:30:09.018Z,9.50
2023-03-12T03:32:40.542Z,9.68
2023-03-12T03:35:09.365Z,9.45
2023-03-12T03:37:35.988Z,9.50
2023-03-12T03:40:02.869Z,10.05
2023-03-12T03:42:29.438Z,10.10
2023-03-12T03:44:56.100Z,8.95
2023-03-12T03:47:22.958Z,8.98
2023-03-12T03:49:49.478Z,9.27
2023-03-12T03:52:16.021Z,8.55
2023-03-12T03:54:42.656Z,8.45
2023-03-12T03:57:09.297Z,8.68
2023-03-12T03:59:35.848Z,8.45
2023-03-12T04:02:02.693Z,8.30
2023-03-12T04:04:31.656Z,8.57
2023-03-12T04:06:58.715Z,8.70
2023-03-12T04:09:25.361Z,8.98
2023-03-12T04:11:52.061Z,8.90
2023-03-12T04:14:19.125Z,8.98
2023-03-12T04:16:45.632Z,9.10
2023-03-12T04:19:12.360Z,9.10
2023-03-12T04:21:39.624Z,8.52
2023-03-12T04:24:08.096Z,8.57
2023-03-12T04:26:35.358Z,9.10
2023-03-12T04:29:04.212Z,8.73
2023-03-12T04:31:31.268Z,9.13
2023-03-12T04:33:57.834Z,9.45
2023-03-12T04:36:29.507Z,8.55
2023-03-12T04:38:56.545Z,9.02
2023-03-12T04:41:27.800Z,8.52
2023-03-12T04:44:01.433Z,8.82
2023-03-12T04:46:28.171Z,8.70
2023-03-12T04:48:54.807Z,8.25
2023-03-12T04:51:21.974Z,8.70
2023-03-12T04:53:48.677Z,8.57
2023-03-12T04:56:15.851Z,8.52
2023-03-12T04:58:43.615Z,8.15
2023-03-12T05:01:27.919Z,8.50
2023-03-12T05:03:55.330Z,8.55
2023-03-12T05:06:23.229Z,8.07
2023-03-12T05:08:50.584Z,7.80
2023-03-12T05:11:18.572Z,8.60
2023-03-12T05:13:45.677Z,8.93
2023-03-12T05:16:12.989Z,8.68
2023-03-12T05:18:40.666Z,9.00
2023-03-12T05:21:13.266Z,9.27
2023-03-12T05:23:42.407Z,8.30
2023-03-12T05:26:21.670Z,8.60
2023-03-12T05:28:48.993Z,9.25
2023-03-12T05:31:17.929Z,8.88
2023-03-12T05:33:45.038Z,8.40
2023-03-12T05:36:12.720Z,8.60
2023-03-12T05:38:39.608Z,8.63
2023-03-12T05:41:07.021Z,8.63
2023-03-12T05:43:36.586Z,9.13
2023-03-12T05:46:04.774Z,8.38
2023-03-12T05:48:33.104Z,8.85
2023-03-12T05:51:00.172Z,9.18
2023-03-12T05:53:27.282Z,9.27
2023-03-12T05:55:54.126Z,8.93
2023-03-12T05:58:20.755Z,8.88
2023-03-12T06:00:47.665Z,8.32
2023-03-12T06:03:14.690Z,9.23
2023-03-12T06:05:44.132Z,8.57
2023-03-12T06:08:10.772Z,8.50
2023-03-12T06:10:39.220Z,9.63
2023-03-12T06:13:06.438Z,9.05
2023-03-12T06:15:33.216Z,8.02
2023-03-12T06:18:00.696Z,8.80
2023-03-12T06:20:27.231Z,9.07
2023-03-12T06:22:53.785Z,8.77
2023-03-12T06:25:20.320Z,8.98
2023-03-12T06:27:47.322Z,8.90
2023-03-12T06:30:14.649Z,8.75
2023-03-12T06:32:41.232Z,8.90
2023-03-12T06:35:08.161Z,9.40
2023-03-12T06:37:34.710Z,9.52
2023-03-12T06:40:01.244Z,9.23
2023-03-12T06:42:28.021Z,10.02
2023-03-12T06:44:54.654Z,10.40
2023-03-12T06:47:21.228Z,10.05
2023-03-12T06:49:47.860Z,10.45
2023-03-12T06:52:14.432Z,10.52
2023-03-12T06:54:41.102Z,10.02
2023-03-12T06:57:07.738Z,10.85
2023-03-12T06:59:34.368Z,10.30
2023-03-12T07:02:01.872Z,10.10
2023-03-12T07:04:28.478Z,10.13
2023-03-12T07:06:54.982Z,10.00
2023-03-12T07:09:21.582Z,10.63
2023-03-12T07:11:48.059Z,10.70
2023-03-12T07:14:14.563Z,10.43
2023-03-12T07:16:41.083Z,10.98
2023-03-12T07:19:07.730Z,11.57
2023-03-12T07:21:34.310Z,11.18
2023-03-12T07:24:00.876Z,10.52
2023-03-12T07:26:27.595Z,10.57
2023-03-12T07:28:54.112Z,10.70
2023-03-12T07:31:20.685Z,10.50
2023-03-12T07:33:47.355Z,11.23
2023-03-12T07:36:14.390Z,11.32
2023-03-12T07:38:41.009Z,11.20
2023-03-12T07:41:07.520Z,10.77
2023-03-12T07:43:34.081Z,10.38
2023-03-12T07:46:00.616Z,10.98
2023-03-12T07:48:27.312Z,10.57
2023-03-12T07:50:53.846Z,10.73
2023-03-12T07:53:20.449Z,10.73
2023-03-12T07:55:48.217Z,11.60
2023-03-12T07:58:16.103Z,11.68
2023-03-12T08:00:42.990Z,11.40
2023-03-12T08:03:09.841Z,10.75
2023-03-12T08:05:36.590Z,10.93
2023-03-12T08:08:03.191Z,11.18
2023-03-12T08:10:29.761Z,10.88
2023-03-12T08:12:56.365Z,11.27
2023-03-12T08:15:22.978Z,12.07
2023-03-12T08:17:49.645Z,11.13
2023-03-12T08:20:17.428Z,11.60
2023-03-12T08:22:44.096Z,11.07
2023-03-12T08:25:11.413Z,11.82
2023-03-12T08:27:38.048Z,11.38
2023-03-12T08:30:06.775Z,11.50
2023-03-12T08:32:33.548Z,11.85
2023-03-12T08:35:00.159Z,12.23
2023-03-12T08:37:26.649Z,12.32
2023-03-12T08:39:53.240Z,12.25
2023-03-12T08:42:19.783Z,11.88
2023-03-12T08:44:46.294Z,12.50
2023-03-12T08:47:12.805Z,12.48
2023-03-12T08:49:39.359Z,12.00
2023-03-12T08:52:05.963Z,12.95
2023-03-12T08:54:32.552Z,12.48
2023-03-12T08:56:59.129Z,14.05
2023-03-12T08:59:25.699Z,13.52
2023-03-12T09:01:52.281Z,15.40
2023-03-12T09:04:18.937Z,15.75
2023-03-12T09:06:45.667Z,16.88
2023-03-12T09:09:12.734Z,17.05
2023-03-12T09:11:39.817Z,18.27
2023-03-12T09:16:53.246Z,18.70
2023-03-12T09:19:20.617Z,21.10
2023-03-12T09:21:47.190Z,20.73
2023-03-12T09:24:13.745Z,23.10
2023-03-12T09:26:40.261Z,23.65
2023-03-12T09:29:06.774Z,22.80
2023-03-12T09:31:34.319Z,23.00
2023-03-12T09:34:00.902Z,25.30
2023-03-12T09:36:27.506Z,26.98
2023-03-12T09:38:55.057Z,27.58
2023-03-12T09:41:26.215Z,26.67
2023-03-12T09:44:07.860Z,27.52
2023-03-12T09:46:48.457Z,27.50
2023-03-12T09:49:29.558Z,28.63
2023-03-12T09:51:58.868Z,28.98
2023-03-12T09:54:49.787Z,28.65
2023-03-12T09:57:23.629Z,29.42
2023-03-12T09:59:52.195Z,28.98
2023-03-12T10:02:47.433Z,29.08
2023-03-12T10:05:19.923Z,28.38
2023-03-12T10:07:53.275Z,29.67
2023-03-12T10:10:35.680Z,26.23
2023-03-12T10:13:14.296Z,26.85
2023-03-12T10:16:09.461Z,27.27
2023-03-12T10:18:48.652Z,27.33
2023-03-12T10:21:17.945Z,27.83
2023-03-12T10:23:59.925Z,29.70
2023-03-12T10:26:36.042Z,26.70
2023-03-12T10:29:08.142Z,26.80
2023-03-12T10:31:51.036Z,27.88
2023-03-12T10:34:26.943Z,27.75
2023-03-12T10:36:58.431Z,27.42
2023-03-12T10:39:24.930Z,26.55
2023-03-12T10:41:53.082Z,26.88
2023-03-12T10:44:24.552Z,26.70
2023-03-12T10:47:27.055Z,25.90
2023-03-12T10:49:53.748Z,25.98
2023-03-12T10:52:23.269Z,25.77
2023-03-12T10:54:52.632Z,25.08
2023-03-12T10:57:21.071Z,25.98
2023-03-12T10:59:48.689Z,24.90
2023-03-12T11:02:37.612Z,24.13
2023-03-12T11:05:48.902Z,24.55
2023-03-12T11:08:27.976Z,24.80
2023-03-12T11:10:55.647Z,24.42
2023-03-12T11:13:26.682Z,23.17
2023-03-12T11:15:54.556Z,23.57
2023-03-12T11:18:25.918Z,23.90
2023-03-12T11:21:08.623Z,23.00
2023-03-12T11:23:40.840Z,23.90
2023-03-12T11:26:18.012Z,23.05
2023-03-12T11:28:49.011Z,23.23
2023-03-12T11:31:27.685Z,23.40
2023-03-12T11:34:03.649Z,22.77
2023-03-12T11:36:56.262Z,22.33
2023-03-12T11:39:41.185Z,22.48
2023-03-12T11:42:36.675Z,21.80
2023-03-12T11:45:27.217Z,21.70
2023-03-12T11:48:29.299Z,22.45
2023-03-12T11:51:10.415Z,21.50
2023-03-12T11:54:12.805Z,21.27
